Time;durP1;ratioP1;P1;durP2;ratioP2;P2;SDS_P1;SDS_P2;PMS_P1;PMS_P2;Temp;Humidity;BMP_temperature;BMP_pressure;BME280_temperature;BME280_humidity;BME280_pressure;Samples;Min_cycle;Max_cycle;Signal;HPM_P1;HPM_P2
2021/10/08 00:00:31;;;;;;;;;;;8.20;49.90;;;;;;4373533;32;19966;-38
2021/10/08 00:02:57;;;;;;;;;;;8.20;50.10;;;;;;4373310;32;19994;-37
2021/10/08 00:05:23;;;;;;;;;;;8.20;50.10;;;;;;4373072;32;19973;-37
2021/10/08 00:07:49;;;;;;;;;;;8.20;50.20;;;;;;4373348;32;19994;-38
2021/10/08 00:10:15;;;;;;;;;;;8.20;50.20;;;;;;4373192;32;20510;-37
2021/10/08 00:12:42;;;;;;;;;;;8.20;50.10;;;;;;4373437;32;19970;-38
2021/10/08 00:15:08;;;;;;;;;;;8.20;50.20;;;;;;4372806;32;19985;-38
2021/10/08 00:17:34;;;;;;;;;;;8.20;50.20;;;;;;4372781;32;20418;-38
2021/10/08 00:20:00;;;;;;;;;;;8.20;50.30;;;;;;4373606;32;19977;-38
2021/10/08 00:22:26;;;;;;;;;;;8.20;50.30;;;;;;4373223;32;20062;-38
2021/10/08 00:24:53;;;;;;;;;;;8.20;50.50;;;;;;4373341;32;19984;-39
2021/10/08 00:27:19;;;;;;;;;;;8.20;50.80;;;;;;4373613;32;19997;-38
2021/10/08 00:29:45;;;;;;;;;;;8.20;51.10;;;;;;4373228;32;19966;-37
2021/10/08 00:32:11;;;;;;;;;;;8.30;51.10;;;;;;4373277;32;19971;-38
2021/10/08 00:34:37;;;;;;;;;;;8.30;50.90;;;;;;4373032;32;19970;-37
2021/10/08 00:37:03;;;;;;;;;;;8.30;50.90;;;;;;4372926;32;20493;-37
2021/10/08 00:39:29;;;;;;;;;;;8.30;50.90;;;;;;4373102;32;19989;-37
2021/10/08 00:41:55;;;;;;;;;;;8.30;50.90;;;;;;4372887;32;20125;-37
2021/10/08 00:44:22;;;;;;;;;;;8.30;50.90;;;;;;4373030;32;19978;-38
2021/10/08 00:46:48;;;;;;;;;;;8.20;50.90;;;;;;4362879;32;19962;-38
2021/10/08 00:49:14;;;;;;;;;;;8.30;50.90;;;;;;4360283;32;19974;-37
2021/10/08 00:51:40;;;;;;;;;;;8.20;50.90;;;;;;4360493;32;19965;-37
2021/10/08 00:54:06;;;;;;;;;;;8.20;50.80;;;;;;4360837;32;19969;-38
2021/10/08 00:56:32;;;;;;;;;;;8.20;50.80;;;;;;4360764;32;20428;-38
2021/10/08 00:58:59;;;;;;;;;;;8.20;50.90;;;;;;4347024;32;20136;-37
2021/10/08 01:01:25;;;;;;;;;;;8.20;51.00;;;;;;4334551;32;20063;-38
2021/10/08 01:03:51;;;;;;;;;;;8.10;51.10;;;;;;4347366;32;19962;-38
2021/10/08 01:06:17;;;;;;;;;;;8.10;51.10;;;;;;4360655;32;19989;-37
2021/10/08 01:08:43;;;;;;;;;;;8.10;51.60;;;;;;4346816;32;19962;-38
2021/10/08 01:11:09;;;;;;;;;;;8.10;51.60;;;;;;4360562;32;20034;-38
2021/10/08 01:13:36;;;;;;;;;;;8.00;51.70;;;;;;4360162;32;19955;-37
2021/10/08 01:16:02;;;;;;;;;;;8.00;51.70;;;;;;4360268;32;20382;-37
2021/10/08 01:18:28;;;;;;;;;;;8.00;51.80;;;;;;4360338;32;19994;-37
2021/10/08 01:20:54;;;;;;;;;;;8.00;51.70;;;;;;4360721;32;19959;-37
2021/10/08 01:23:21;;;;;;;;;;;8.00;51.70;;;;;;4360305;32;20410;-38
2021/10/08 01:25:49;;;;;;;;;;;8.00;51.60;;;;;;4346413;32;20083;-37
2021/10/08 01:28:15;;;;;;;;;;;7.90;51.60;;;;;;4360527;32;19958;-38
2021/10/08 01:30:41;;;;;;;;;;;8.00;51.70;;;;;;4360593;32;19974;-37
2021/10/08 01:33:07;;;;;;;;;;;7.90;51.70;;;;;;4360131;32;19974;-37
2021/10/08 01:35:33;;;;;;;;;;;7.90;51.60;;;;;;4360204;32;20053;-38
2021/10/08 01:38:00;;;;;;;;;;;7.90;51.60;;;;;;4360188;32;19982;-37
2021/10/08 01:40:26;;;;;;;;;;;7.90;51.60;;;;;;4360263;32;19981;-37
2021/10/08 01:42:52;;;;;;;;;;;7.90;51.50;;;;;;4359956;32;19954;-38
2021/10/08 01:45:18;;;;;;;;;;;7.90;51.50;;;;;;4360661;32;19994;-37
2021/10/08 01:47:44;;;;;;;;;;;7.90;51.60;;;;;;4375322;32;20391;-37
2021/10/08 01:50:11;;;;;;;;;;;7.90;51.60;;;;;;4374876;32;20377;-38
2021/10/08 01:52:37;;;;;;;;;;;7.90;51.60;;;;;;4374798;32;19959;-38
2021/10/08 01:55:04;;;;;;;;;;;7.80;51.60;;;;;;4374780;32;19978;-37
2021/10/08 01:57:30;;;;;;;;;;;7.80;51.50;;;;;;4374546;32;20382;-38
2021/10/08 01:59:56;;;;;;;;;;;7.90;51.60;;;;;;4374783;32;19999;-38
2021/10/08 02:02:23;;;;;;;;;;;7.80;51.60;;;;;;4374620;32;20041;-38
2021/10/08 02:04:49;;;;;;;;;;;7.80;51.80;;;;;;4374955;32;20525;-38
2021/10/08 02:07:15;;;;;;;;;;;7.80;52.00;;;;;;4374397;32;20386;-38
2021/10/08 02:09:41;;;;;;;;;;;7.80;52.00;;;;;;4374500;32;19969;-37
2021/10/08 02:12:09;;;;;;;;;;;7.80;51.90;;;;;;4374620;32;19992;-37
2021/10/08 02:14:35;;;;;;;;;;;7.70;51.90;;;;;;4374855;32;19974;-37
2021/10/08 02:17:01;;;;;;;;;;;7.70;51.90;;;;;;4374416;32;19973;-39
2021/10/08 02:19:28;;;;;;;;;;;7.70;51.80;;;;;;4374817;32;19958;-38
2021/10/08 02:21:54;;;;;;;;;;;7.70;51.70;;;;;;4374537;32;19970;-38
2021/10/08 02:24:20;;;;;;;;;;;7.70;51.70;;;;;;4374326;32;20098;-38
2021/10/08 02:26:46;;;;;;;;;;;7.70;51.70;;;;;;4374223;32;20484;-38
2021/10/08 02:29:12;;;;;;;;;;;7.70;51.70;;;;;;4374233;32;19966;-38
2021/10/08 02:31:38;;;;;;;;;;;7.70;51.70;;;;;;4374152;32;19958;-37
2021/10/08 02:34:05;;;;;;;;;;;7.70;51.70;;;;;;4374037;32;19977;-38
2021/10/08 02:36:31;;;;;;;;;;;7.70;51.70;;;;;;4360488;32;20387;-37
2021/10/08 02:38:57;;;;;;;;;;;7.60;51.60;;;;;;4374503;32;19954;-38
2021/10/08 02:41:24;;;;;;;;;;;7.60;51.60;;;;;;4373909;32;19976;-38
2021/10/08 02:43:50;;;;;;;;;;;7.60;51.60;;;;;;4374006;32;20074;-38
2021/10/08 02:46:16;;;;;;;;;;;7.50;51.50;;;;;;4366909;32;20382;-37
2021/10/08 02:48:42;;;;;;;;;;;7.50;51.50;;;;;;4358810;32;20413;-37
2021/10/08 02:51:08;;;;;;;;;;;7.50;51.50;;;;;;4359597;32;19959;-37
2021/10/08 02:53:35;;;;;;;;;;;7.50;51.40;;;;;;4358930;32;19966;-38
2021/10/08 02:56:03;;;;;;;;;;;7.50;51.40;;;;;;4358888;32;20055;-38
2021/10/08 02:58:29;;;;;;;;;;;7.50;51.40;;;;;;4359180;32;19978;-39
2021/10/08 03:00:55;;;;;;;;;;;7.50;51.50;;;;;;4358708;32;19988;-38
2021/10/08 03:03:21;;;;;;;;;;;7.50;51.50;;;;;;4358797;32;19963;-37
2021/10/08 03:05:48;;;;;;;;;;;7.40;51.40;;;;;;4358769;32;19954;-37
2021/10/08 03:08:14;;;;;;;;;;;7.40;51.40;;;;;;4359097;32;19974;-39
2021/10/08 03:10:40;;;;;;;;;;;7.40;51.40;;;;;;4358484;32;20071;-38
2021/10/08 03:13:06;;;;;;;;;;;7.40;52.10;;;;;;4358656;32;20491;-39
2021/10/08 03:15:32;;;;;;;;;;;7.40;51.40;;;;;;4359026;32;19978;-38
2021/10/08 03:17:58;;;;;;;;;;;7.40;51.40;;;;;;4358776;32;20005;-38
2021/10/08 03:20:25;;;;;;;;;;;7.50;51.50;;;;;;4358542;32;19978;-38
2021/10/08 03:22:51;;;;;;;;;;;7.40;51.40;;;;;;4358773;32;20045;-38
2021/10/08 03:25:17;;;;;;;;;;;7.50;51.50;;;;;;4358824;32;19993;-38
2021/10/08 03:27:43;;;;;;;;;;;7.50;51.50;;;;;;4358266;32;20430;-38
2021/10/08 03:30:12;;;;;;;;;;;7.50;51.50;;;;;;4358655;32;20131;-38
2021/10/08 03:32:38;;;;;;;;;;;7.60;51.50;;;;;;4358516;32;20460;-38
2021/10/08 03:35:04;;;;;;;;;;;7.60;51.60;;;;;;4358292;32;19982;-37
2021/10/08 03:37:48;;;;;;;;;;;7.60;51.90;;;;;;4358345;32;20025;-39
2021/10/08 03:40:22;;;;;;;;;;;7.80;52.10;;;;;;4358618;32;20143;-37
2021/10/08 03:42:48;;;;;;;;;;;7.90;52.20;;;;;;4358547;32;19959;-38
2021/10/08 03:45:15;;;;;;;;;;;8.00;52.60;;;;;;4359000;32;19964;-37
2021/10/08 03:50:29;;;;;;;;;;;8.40;53.10;;;;;;4356634;32;20422;-39
2021/10/08 03:52:55;;;;;;;;;;;8.60;53.20;;;;;;4373304;32;19990;-38
2021/10/08 03:55:21;;;;;;;;;;;8.80;53.30;;;;;;4359308;32;20367;-39
2021/10/08 03:57:47;;;;;;;;;;;8.90;53.10;;;;;;4373253;32;19966;-40
2021/10/08 04:00:14;;;;;;;;;;;9.00;52.80;;;;;;4373631;32;20402;-38
2021/10/08 04:02:40;;;;;;;;;;;9.10;52.70;;;;;;4373191;32;19974;-38
2021/10/08 04:05:07;;;;;;;;;;;9.30;52.70;;;;;;4373041;32;19970;-38
2021/10/08 04:07:33;;;;;;;;;;;9.40;52.60;;;;;;4373724;32;20367;-39
2021/10/08 04:09:59;;;;;;;;;;;9.50;52.60;;;;;;4372783;32;20531;-39
2021/10/08 04:12:26;;;;;;;;;;;9.70;52.60;;;;;;4373520;32;20034;-40
2021/10/08 04:14:52;;;;;;;;;;;9.80;52.50;;;;;;4373135;32;19982;-38
2021/10/08 04:17:18;;;;;;;;;;;9.90;52.50;;;;;;4372726;32;19958;-38
2021/10/08 04:19:44;;;;;;;;;;;10.10;52.60;;;;;;4372942;32;19970;-40
2021/10/08 04:22:10;;;;;;;;;;;10.30;52.70;;;;;;4373889;32;20135;-38
2021/10/08 04:24:37;;;;;;;;;;;10.50;52.80;;;;;;4375932;32;19963;-38
2021/10/08 04:27:03;;;;;;;;;;;10.70;52.90;;;;;;4376012;32;19989;-39
2021/10/08 04:29:29;;;;;;;;;;;10.80;53.10;;;;;;4375757;32;19974;-39
2021/10/08 04:31:55;;;;;;;;;;;11.10;53.90;;;;;;4375752;32;19981;-38
2021/10/08 04:34:21;;;;;;;;;;;11.50;54.50;;;;;;4376028;32;19978;-39
2021/10/08 04:36:47;;;;;;;;;;;11.90;55.00;;;;;;4375582;32;19985;-38
2021/10/08 04:39:13;;;;;;;;;;;12.40;55.30;;;;;;4375676;32;19963;-39
2021/10/08 04:41:40;;;;;;;;;;;12.90;55.60;;;;;;4375361;32;20046;-39
2021/10/08 04:44:06;;;;;;;;;;;13.40;56.20;;;;;;4375965;32;20057;-38
2021/10/08 04:46:32;;;;;;;;;;;13.90;55.30;;;;;;4367209;32;19979;-38
2021/10/08 04:48:58;;;;;;;;;;;14.40;55.10;;;;;;4360871;32;20078;-38
2021/10/08 04:51:24;;;;;;;;;;;14.90;54.70;;;;;;4360340;32;19954;-39
2021/10/08 04:53:51;;;;;;;;;;;15.50;54.10;;;;;;4360668;32;19990;-39
2021/10/08 04:56:17;;;;;;;;;;;15.90;53.30;;;;;;4360960;32;19959;-38
2021/10/08 04:58:43;;;;;;;;;;;16.30;52.50;;;;;;4360601;32;19966;-39
2021/10/08 05:01:09;;;;;;;;;;;16.70;51.60;;;;;;4360684;32;19962;-37
2021/10/08 05:03:35;;;;;;;;;;;17.20;50.80;;;;;;4360443;32;19962;-39
2021/10/08 05:06:01;;;;;;;;;;;17.50;49.80;;;;;;4360255;32;20486;-38
2021/10/08 05:08:28;;;;;;;;;;;17.90;49.10;;;;;;4360136;32;19973;-37
2021/10/08 05:10:54;;;;;;;;;;;18.10;48.50;;;;;;4360726;32;19977;-38
2021/10/08 05:13:20;;;;;;;;;;;18.40;47.90;;;;;;4360068;32;19981;-38
2021/10/08 05:15:46;;;;;;;;;;;18.70;47.20;;;;;;4360305;32;20040;-38
2021/10/08 05:18:12;;;;;;;;;;;19.00;46.50;;;;;;4334297;32;20066;-38
2021/10/08 05:20:38;;;;;;;;;;;19.20;45.80;;;;;;4360672;32;19998;-39
2021/10/08 05:23:05;;;;;;;;;;;19.50;45.50;;;;;;4360823;32;20033;-38
2021/10/08 05:25:31;;;;;;;;;;;19.70;45.10;;;;;;4360054;32;20010;-38
2021/10/08 05:27:57;;;;;;;;;;;19.80;43.90;;;;;;4360026;32;20040;-38
2021/10/08 05:30:23;;;;;;;;;;;20.00;43.50;;;;;;4360126;32;19965;-39
2021/10/08 05:32:50;;;;;;;;;;;20.20;43.10;;;;;;4346660;32;19983;-38
2021/10/08 05:35:16;;;;;;;;;;;20.30;42.30;;;;;;4359343;32;19997;-39
2021/10/08 05:37:42;;;;;;;;;;;20.40;42.10;;;;;;4360338;32;20422;-38
2021/10/08 05:40:09;;;;;;;;;;;20.70;41.60;;;;;;4360162;32;19973;-38
2021/10/08 05:42:35;;;;;;;;;;;20.80;41.00;;;;;;4359599;32;20063;-38
2021/10/08 05:45:02;;;;;;;;;;;20.90;40.00;;;;;;4359941;32;20005;-38
2021/10/08 05:47:28;;;;;;;;;;;20.80;39.80;;;;;;4345807;32;20438;-39
2021/10/08 05:49:54;;;;;;;;;;;20.80;39.70;;;;;;4359743;32;20046;-39
2021/10/08 05:52:21;;;;;;;;;;;20.90;39.70;;;;;;4360086;32;20063;-39
2021/10/08 05:54:47;;;;;;;;;;;21.00;39.70;;;;;;4360000;32;19969;-39
2021/10/08 05:57:13;;;;;;;;;;;21.00;39.30;;;;;;4359658;32;20050;-39
2021/10/08 05:59:41;;;;;;;;;;;21.10;38.90;;;;;;4359643;32;20501;-37
2021/10/08 06:02:07;;;;;;;;;;;21.20;38.90;;;;;;4359337;32;20363;-38
2021/10/08 06:04:33;;;;;;;;;;;21.20;38.40;;;;;;4345983;32;20013;-38
2021/10/08 06:06:59;;;;;;;;;;;21.30;38.20;;;;;;4359242;32;20651;-38
2021/10/08 06:09:25;;;;;;;;;;;21.40;37.90;;;;;;4359530;32;20040;-37
2021/10/08 06:11:51;;;;;;;;;;;21.50;37.70;;;;;;4359221;32;20430;-37
2021/10/08 06:14:18;;;;;;;;;;;21.60;37.70;;;;;;4359426;32;20047;-39
2021/10/08 06:16:44;;;;;;;;;;;21.80;37.70;;;;;;4359573;32;20051;-37
2021/10/08 06:19:10;;;;;;;;;;;22.00;37.50;;;;;;4327078;33;19990;-39
2021/10/08 06:21:36;;;;;;;;;;;22.20;37.40;;;;;;4326608;33;20030;-39
2021/10/08 06:24:03;;;;;;;;;;;22.40;37.00;;;;;;4327101;33;20115;-39
2021/10/08 06:26:29;;;;;;;;;;;22.50;36.40;;;;;;4327216;33;19972;-39
2021/10/08 06:28:55;;;;;;;;;;;22.50;36.20;;;;;;4327304;33;19967;-39
2021/10/08 06:31:21;;;;;;;;;;;22.60;35.70;;;;;;4327332;33;20141;-39
2021/10/08 06:33:47;;;;;;;;;;;22.50;35.60;;;;;;4327121;33;19967;-38
2021/10/08 06:36:13;;;;;;;;;;;22.60;35.30;;;;;;4327549;33;19977;-38
2021/10/08 06:38:39;;;;;;;;;;;22.50;34.90;;;;;;4327153;33;19982;-38
2021/10/08 06:41:05;;;;;;;;;;;22.50;35.00;;;;;;4326844;33;19990;-37
2021/10/08 06:43:32;;;;;;;;;;;22.50;35.20;;;;;;4327079;33;20420;-38
2021/10/08 06:45:58;;;;;;;;;;;22.50;35.00;;;;;;4326354;33;20420;-38
2021/10/08 06:48:24;;;;;;;;;;;22.50;34.10;;;;;;4300023;33;19987;-38
2021/10/08 06:50:50;;;;;;;;;;;22.30;33.90;;;;;;4323209;33;19982;-38
2021/10/08 06:53:16;;;;;;;;;;;22.30;34.50;;;;;;4326661;33;20504;-37
2021/10/08 06:55:43;;;;;;;;;;;22.30;34.70;;;;;;4326866;33;19981;-37
2021/10/08 06:58:09;;;;;;;;;;;22.40;34.30;;;;;;4326806;33;20050;-38
2021/10/08 07:00:35;;;;;;;;;;;22.40;34.10;;;;;;4326482;33;20160;-39
2021/10/08 07:03:01;;;;;;;;;;;22.40;34.00;;;;;;4326933;33;19975;-38
2021/10/08 07:05:27;;;;;;;;;;;22.40;34.20;;;;;;4326428;33;20435;-38
2021/10/08 07:07:54;;;;;;;;;;;22.40;34.00;;;;;;4326412;33;20074;-38
2021/10/08 07:10:20;;;;;;;;;;;22.40;34.10;;;;;;4326558;33;20039;-39
2021/10/08 07:12:46;;;;;;;;;;;22.40;34.00;;;;;;4327237;33;19979;-39
2021/10/08 07:15:19;;;;;;;;;;;22.40;33.80;;;;;;4326516;33;20066;-38
2021/10/08 07:17:48;;;;;;;;;;;22.40;33.50;;;;;;4315054;33;19983;-37
2021/10/08 07:20:25;;;;;;;;;;;22.30;33.60;;;;;;4354248;32;20051;-38
2021/10/08 07:22:51;;;;;;;;;;;22.20;33.60;;;;;;4359122;32;19974;-38
2021/10/08 07:25:18;;;;;;;;;;;22.20;33.80;;;;;;4359009;32;19977;-38
2021/10/08 07:27:46;;;;;;;;;;;22.20;33.60;;;;;;4358691;32;20052;-38
2021/10/08 07:30:12;;;;;;;;;;;22.30;33.50;;;;;;4358872;32;20034;-38
2021/10/08 07:32:38;;;;;;;;;;;22.40;33.40;;;;;;4358246;32;19997;-37
2021/10/08 07:35:05;;;;;;;;;;;22.60;33.10;;;;;;4358395;32;19965;-38
2021/10/08 07:37:32;;;;;;;;;;;22.60;32.90;;;;;;4344559;32;19958;-38
2021/10/08 07:39:58;;;;;;;;;;;22.80;32.90;;;;;;4344525;32;20050;-38
2021/10/08 07:42:24;;;;;;;;;;;23.10;32.60;;;;;;4358378;32;19962;-39
2021/10/08 07:44:50;;;;;;;;;;;23.30;32.40;;;;;;4358561;32;19982;-39
2021/10/08 07:47:17;;;;;;;;;;;23.40;32.10;;;;;;4371788;32;20053;-38
2021/10/08 07:49:43;;;;;;;;;;;23.60;31.80;;;;;;4373423;32;19985;-37
2021/10/08 07:52:09;;;;;;;;;;;23.70;31.60;;;;;;4373253;32;20003;-37
2021/10/08 07:54:36;;;;;;;;;;;23.80;32.30;;;;;;4373059;32;20123;-38
2021/10/08 07:57:03;;;;;;;;;;;24.00;31.00;;;;;;4360213;32;19955;-37
2021/10/08 07:59:29;;;;;;;;;;;24.00;31.10;;;;;;4362844;32;20019;-38
2021/10/08 08:01:55;;;;;;;;;;;24.10;30.90;;;;;;4375972;32;19957;-38
2021/10/08 08:04:21;;;;;;;;;;;24.20;30.60;;;;;;4376415;32;19985;-38
2021/10/08 08:06:47;;;;;;;;;;;24.10;30.40;;;;;;4362299;32;20417;-37
2021/10/08 08:09:15;;;;;;;;;;;24.00;30.40;;;;;;4375884;32;19973;-38
2021/10/08 08:11:42;;;;;;;;;;;24.00;30.50;;;;;;4376129;32;20017;-38
2021/10/08 08:14:08;;;;;;;;;;;23.90;30.60;;;;;;4376359;32;20067;-39
2021/10/08 08:16:34;;;;;;;;;;;23.90;30.40;;;;;;4376051;32;20046;-39
2021/10/08 08:19:03;;;;;;;;;;;23.80;30.50;;;;;;4375946;32;20462;-38
2021/10/08 08:21:29;;;;;;;;;;;23.60;30.50;;;;;;4375814;32;19974;-39
2021/10/08 08:23:55;;;;;;;;;;;23.50;30.80;;;;;;4361795;32;20437;-38
2021/10/08 08:26:21;;;;;;;;;;;23.50;30.70;;;;;;4376108;32;19997;-38
2021/10/08 08:28:47;;;;;;;;;;;23.40;30.40;;;;;;4375774;32;19970;-38
2021/10/08 08:31:15;;;;;;;;;;;23.30;30.20;;;;;;4375945;32;19973;-38
2021/10/08 08:33:41;;;;;;;;;;;23.10;30.60;;;;;;4375871;32;20087;-38
2021/10/08 08:36:07;;;;;;;;;;;23.00;30.70;;;;;;4375459;32;20430;-39
2021/10/08 08:38:33;;;;;;;;;;;22.90;30.70;;;;;;4375948;32;20033;-39
2021/10/08 08:41:00;;;;;;;;;;;22.90;30.80;;;;;;4375592;32;20422;-39
2021/10/08 08:43:27;;;;;;;;;;;22.80;30.90;;;;;;4375588;32;19992;-38
2021/10/08 08:45:53;;;;;;;;;;;22.90;30.90;;;;;;4371037;32;20414;-38
2021/10/08 08:48:19;;;;;;;;;;;23.00;30.90;;;;;;4361245;32;19967;-38
2021/10/08 08:50:46;;;;;;;;;;;23.10;30.70;;;;;;4360460;32;19974;-38
2021/10/08 08:53:17;;;;;;;;;;;23.10;30.40;;;;;;4360605;32;20075;-39
2021/10/08 08:55:43;;;;;;;;;;;22.90;30.00;;;;;;4360880;32;19986;-38
2021/10/08 08:58:10;;;;;;;;;;;22.70;30.10;;;;;;4360295;32;19996;-38
2021/10/08 09:00:37;;;;;;;;;;;22.60;30.30;;;;;;4360738;32;19962;-38
2021/10/08 09:03:04;;;;;;;;;;;22.60;30.40;;;;;;4360023;32;19962;-39
2021/10/08 09:05:35;;;;;;;;;;;22.60;30.30;;;;;;4360103;32;20394;-39
2021/10/08 09:08:04;;;;;;;;;;;22.70;30.20;;;;;;4359880;32;20118;-39
2021/10/08 09:10:32;;;;;;;;;;;22.80;29.80;;;;;;4346299;32;19970;-38
2021/10/08 09:12:58;;;;;;;;;;;22.80;29.70;;;;;;4360301;32;19978;-39
2021/10/08 09:15:26;;;;;;;;;;;22.70;29.50;;;;;;4360441;32;19989;-39
2021/10/08 09:18:06;;;;;;;;;;;22.70;29.60;;;;;;4360241;32;19994;-38
2021/10/08 09:20:32;;;;;;;;;;;22.70;29.60;;;;;;4360514;32;20405;-40
2021/10/08 09:22:58;;;;;;;;;;;22.60;29.40;;;;;;4359768;32;20431;-39
2021/10/08 09:25:30;;;;;;;;;;;22.50;29.30;;;;;;4360121;32;20060;-39
2021/10/08 09:28:04;;;;;;;;;;;22.40;29.40;;;;;;4360013;32;19962;-39
2021/10/08 09:30:51;;;;;;;;;;;22.20;29.50;;;;;;4359960;32;20465;-39
2021/10/08 09:33:21;;;;;;;;;;;22.10;29.60;;;;;;4359939;32;20040;-39
2021/10/08 09:35:53;;;;;;;;;;;22.00;29.80;;;;;;4359870;32;19970;-39
2021/10/08 09:38:20;;;;;;;;;;;22.00;29.90;;;;;;4359597;32;19974;-38
2021/10/08 09:40:51;;;;;;;;;;;22.00;29.90;;;;;;4359802;32;20102;-39
2021/10/08 09:43:30;;;;;;;;;;;22.10;29.90;;;;;;4346297;32;19997;-40
2021/10/08 09:46:01;;;;;;;;;;;22.20;29.50;;;;;;4364989;32;20387;-39
2021/10/08 09:48:43;;;;;;;;;;;22.20;29.50;;;;;;4374752;32;19958;-39
2021/10/08 09:51:10;;;;;;;;;;;22.10;29.70;;;;;;4374814;32;19958;-39
2021/10/08 09:53:38;;;;;;;;;;;22.00;29.60;;;;;;4374851;32;19958;-39
2021/10/08 09:56:40;;;;;;;;;;;21.90;29.80;;;;;;4374516;32;20004;-39
2021/10/08 09:59:07;;;;;;;;;;;21.90;30.00;;;;;;4374376;32;20059;-38
2021/10/08 10:01:35;;;;;;;;;;;21.90;29.90;;;;;;4374220;32;20486;-39
2021/10/08 10:04:02;;;;;;;;;;;21.80;30.00;;;;;;4374544;32;20550;-38
2021/10/08 10:06:29;;;;;;;;;;;21.70;30.00;;;;;;4348654;32;20050;-38
2021/10/08 10:08:55;;;;;;;;;;;21.70;30.00;;;;;;4374912;32;20394;-38
2021/10/08 10:11:23;;;;;;;;;;;21.60;30.10;;;;;;4374989;32;19976;-39
2021/10/08 10:13:52;;;;;;;;;;;21.60;30.10;;;;;;4374385;32;19993;-39
2021/10/08 10:16:18;;;;;;;;;;;21.50;30.40;;;;;;4374090;32;19996;-40
2021/10/08 10:18:49;;;;;;;;;;;21.40;30.30;;;;;;4373873;32;20374;-40
2021/10/08 10:21:22;;;;;;;;;;;21.40;30.30;;;;;;4373870;32;20421;-39
2021/10/08 10:24:00;;;;;;;;;;;21.50;30.40;;;;;;4326830;33;20387;-38
2021/10/08 10:26:28;;;;;;;;;;;21.60;30.50;;;;;;4327523;33;19979;-39
2021/10/08 10:28:55;;;;;;;;;;;21.50;30.00;;;;;;4327192;33;19966;-39
2021/10/08 10:31:21;;;;;;;;;;;21.50;30.00;;;;;;4326854;33;19975;-39
2021/10/08 10:33:50;;;;;;;;;;;21.50;30.00;;;;;;4314556;33;20522;-38
2021/10/08 10:36:27;;;;;;;;;;;21.50;30.00;;;;;;4326740;33;19997;-40
2021/10/08 10:39:16;;;;;;;;;;;21.50;30.20;;;;;;4327149;33;19979;-39
2021/10/08 10:41:44;;;;;;;;;;;21.50;30.10;;;;;;4326816;33;19967;-40
2021/10/08 10:44:12;;;;;;;;;;;21.50;30.00;;;;;;4326990;33;20453;-38
2021/10/08 10:51:57;;;;;;;;;;;22.00;29.90;;;;;;4312185;33;20454;-39
2021/10/08 10:54:39;;;;;;;;;;;22.10;29.60;;;;;;4326963;32;19997;-38
2021/10/08 10:57:09;;;;;;;;;;;22.10;29.60;;;;;;4359150;32;19966;-39
2021/10/08 10:59:36;;;;;;;;;;;22.20;29.50;;;;;;4358489;32;20370;-39
2021/10/08 11:02:18;;;;;;;;;;;22.30;29.40;;;;;;4358659;32;19998;-39
2021/10/08 11:04:45;;;;;;;;;;;22.30;29.30;;;;;;4359239;32;19986;-39
2021/10/08 11:07:12;;;;;;;;;;;22.40;29.20;;;;;;4359230;32;20048;-39
2021/10/08 11:09:40;;;;;;;;;;;22.50;29.10;;;;;;4345017;32;19978;-38
2021/10/08 11:12:42;;;;;;;;;;;22.50;29.20;;;;;;4358762;32;19974;-39
2021/10/08 11:15:17;;;;;;;;;;;22.70;29.10;;;;;;4348380;32;19969;-39
2021/10/08 11:17:57;;;;;;;;;;;22.80;29.10;;;;;;4358325;32;19978;-39
2021/10/08 11:20:29;;;;;;;;;;;22.90;29.00;;;;;;4358863;32;19993;-39
2021/10/08 11:22:57;;;;;;;;;;;23.20;28.90;;;;;;4358329;32;20046;-39
2021/10/08 11:25:24;;;;;;;;;;;23.50;28.60;;;;;;4358443;32;20466;-38
2021/10/08 11:27:50;;;;;;;;;;;23.90;28.40;;;;;;4358708;32;20425;-39
2021/10/08 11:30:17;;;;;;;;;;;24.00;27.90;;;;;;4345002;32;20419;-38
2021/10/08 11:32:47;;;;;;;;;;;23.90;27.90;;;;;;4357767;32;19966;-39
2021/10/08 11:35:18;;;;;;;;;;;23.80;27.90;;;;;;4358451;32;19974;-39
2021/10/08 11:37:46;;;;;;;;;;;23.70;27.90;;;;;;4358367;32;19978;-39
2021/10/08 11:40:15;;;;;;;;;;;23.80;28.10;;;;;;4358468;32;19981;-39
2021/10/08 11:42:53;;;;;;;;;;;23.90;28.10;;;;;;4358163;32;19975;-39
2021/10/08 11:45:33;;;;;;;;;;;23.90;27.90;;;;;;4358907;32;20428;-40
2021/10/08 11:48:09;;;;;;;;;;;23.90;27.90;;;;;;4373451;32;20055;-39
2021/10/08 11:53:01;;;;;;;;;;;24.00;28.00;;;;;;4359697;32;19983;-39
2021/10/08 11:55:29;;;;;;;;;;;24.00;27.70;;;;;;4359491;32;19973;-39
2021/10/08 11:57:59;;;;;;;;;;;24.00;27.60;;;;;;4373535;32;19997;-38
2021/10/08 12:00:47;;;;;;;;;;;24.00;27.50;;;;;;4373349;32;19966;-39
2021/10/08 12:03:16;;;;;;;;;;;23.80;27.50;;;;;;4372709;32;19954;-39
2021/10/08 12:05:54;;;;;;;;;;;23.60;27.70;;;;;;4373373;32;19974;-40
2021/10/08 12:08:21;;;;;;;;;;;23.50;27.90;;;;;;4359400;32;20478;-40
2021/10/08 12:11:18;;;;;;;;;;;23.40;28.10;;;;;;4373301;32;19970;-40
2021/10/08 12:13:51;;;;;;;;;;;23.30;28.00;;;;;;4373052;32;19985;-38
2021/10/08 12:16:22;;;;;;;;;;;23.30;28.20;;;;;;4373084;32;19974;-38
2021/10/08 12:18:58;;;;;;;;;;;23.30;28.30;;;;;;4373091;32;19978;-37
2021/10/08 12:21:31;;;;;;;;;;;23.40;28.40;;;;;;4373098;32;19997;-38
2021/10/08 12:23:59;;;;;;;;;;;23.40;28.40;;;;;;4372851;32;20136;-38
2021/10/08 12:26:25;;;;;;;;;;;23.50;28.40;;;;;;4372916;32;19982;-39
2021/10/08 12:28:52;;;;;;;;;;;23.50;28.50;;;;;;4372774;32;19970;-38
2021/10/08 12:31:22;;;;;;;;;;;23.50;28.40;;;;;;4373241;32;19973;-39
2021/10/08 12:33:48;;;;;;;;;;;23.50;28.30;;;;;;4372508;32;20480;-38
2021/10/08 12:36:28;;;;;;;;;;;23.40;28.20;;;;;;4372781;32;19981;-38
2021/10/08 12:38:59;;;;;;;;;;;23.10;28.20;;;;;;4373091;32;19982;-39
2021/10/08 12:41:32;;;;;;;;;;;23.00;28.40;;;;;;4372515;32;20101;-40
2021/10/08 12:44:14;;;;;;;;;;;22.80;28.60;;;;;;4374790;32;20062;-39
2021/10/08 12:46:42;;;;;;;;;;;22.50;28.80;;;;;;4352447;32;20047;-40
2021/10/08 12:49:09;;;;;;;;;;;22.30;29.20;;;;;;4360573;32;19981;-40
2021/10/08 12:51:46;;;;;;;;;;;22.20;29.30;;;;;;4361316;32;20059;-40
2021/10/08 12:54:14;;;;;;;;;;;22.00;29.40;;;;;;4360538;32;20551;-40
2021/10/08 12:56:40;;;;;;;;;;;22.00;29.60;;;;;;4360493;32;20034;-39
2021/10/08 12:59:07;;;;;;;;;;;21.90;29.70;;;;;;4360562;32;19966;-40
2021/10/08 13:01:33;;;;;;;;;;;21.80;29.80;;;;;;4360824;32;19963;-39
2021/10/08 13:04:16;;;;;;;;;;;21.80;29.80;;;;;;4346457;32;20051;-38
2021/10/08 13:06:42;;;;;;;;;;;21.80;29.90;;;;;;4360165;32;19978;-39
2021/10/08 13:09:16;;;;;;;;;;;21.70;29.90;;;;;;4347117;32;19981;-39
2021/10/08 13:11:47;;;;;;;;;;;21.70;30.00;;;;;;4360374;32;20128;-39
2021/10/08 13:14:20;;;;;;;;;;;21.60;29.90;;;;;;4360108;32;20399;-39
2021/10/08 13:16:47;;;;;;;;;;;21.60;30.00;;;;;;4359817;32;20047;-39
2021/10/08 13:19:32;;;;;;;;;;;21.70;30.00;;;;;;4360106;32;19990;-38
2021/10/08 13:21:59;;;;;;;;;;;21.80;30.10;;;;;;4346314;32;20009;-39
2021/10/08 13:24:25;;;;;;;;;;;21.80;30.00;;;;;;4359782;32;19988;-39
2021/10/08 13:26:52;;;;;;;;;;;21.90;30.00;;;;;;4359792;32;20532;-38
2021/10/08 13:29:18;;;;;;;;;;;21.90;30.00;;;;;;4359926;32;19978;-39
2021/10/08 13:31:44;;;;;;;;;;;21.90;30.10;;;;;;4360132;32;19965;-38
2021/10/08 13:34:10;;;;;;;;;;;21.90;30.20;;;;;;4346218;32;19973;-40
2021/10/08 13:36:37;;;;;;;;;;;21.90;30.40;;;;;;4345976;32;19970;-39
2021/10/08 13:39:04;;;;;;;;;;;21.80;30.50;;;;;;4359813;32;20001;-38
2021/10/08 13:41:30;;;;;;;;;;;21.70;30.70;;;;;;4359442;32;19974;-39
2021/10/08 13:43:56;;;;;;;;;;;21.70;30.90;;;;;;4359852;32;20203;-38
2021/10/08 13:46:22;;;;;;;;;;;21.70;31.00;;;;;;4367347;32;19989;-39
2021/10/08 13:48:48;;;;;;;;;;;21.70;31.10;;;;;;4374510;32;19993;-38
2021/10/08 13:51:16;;;;;;;;;;;21.60;31.10;;;;;;4374417;32;20050;-39
2021/10/08 13:53:45;;;;;;;;;;;21.60;31.20;;;;;;4374632;32;19974;-39
2021/10/08 13:56:15;;;;;;;;;;;21.50;31.40;;;;;;4374444;32;20003;-40
2021/10/08 13:58:41;;;;;;;;;;;21.40;31.50;;;;;;4360534;32;20034;-39
2021/10/08 14:01:08;;;;;;;;;;;21.30;31.60;;;;;;4374514;32;20416;-40
2021/10/08 14:03:39;;;;;;;;;;;21.30;31.70;;;;;;4374361;32;20449;-38
2021/10/08 14:08:42;;;;;;;;;;;21.40;31.90;;;;;;4374464;32;19969;-39
2021/10/08 14:11:11;;;;;;;;;;;21.40;31.80;;;;;;4374259;32;19996;-39
2021/10/08 14:13:37;;;;;;;;;;;21.50;31.80;;;;;;4374865;32;19973;-40
2021/10/08 14:16:04;;;;;;;;;;;21.40;31.70;;;;;;4373987;32;20024;-38
2021/10/08 14:18:30;;;;;;;;;;;21.30;31.80;;;;;;4374363;32;19962;-39
2021/10/08 14:20:56;;;;;;;;;;;21.10;31.80;;;;;;4374662;32;20001;-39
2021/10/08 14:23:24;;;;;;;;;;;20.90;31.80;;;;;;4374081;32;20466;-39
2021/10/08 14:25:51;;;;;;;;;;;20.80;32.00;;;;;;4374327;32;19989;-39
2021/10/08 14:28:17;;;;;;;;;;;20.70;32.10;;;;;;4374158;32;20366;-38
2021/10/08 14:30:44;;;;;;;;;;;20.50;32.00;;;;;;4374158;32;19966;-38
2021/10/08 14:33:10;;;;;;;;;;;20.40;32.10;;;;;;4374333;32;19966;-40
2021/10/08 14:35:39;;;;;;;;;;;20.20;32.50;;;;;;4360338;32;19986;-38
2021/10/08 14:38:06;;;;;;;;;;;20.00;32.30;;;;;;4360017;32;19988;-39